Terminal Aerodrome Forecast
Issued by NWS Wilmington, NC

Home | Current Version | Previous Version | Text Only | Print | Product List | Glossary On
Versions: 1 2 3 4 5 6 7 8 9 10 11 12 13 14 15 16 17 18 19 20
194
FTUS42 KILM 301120
TAFMYR
TAF
KMYR 301120Z 3012/3112 25005KT P6SM SCT020 SCT120
     FM301800 21008KT P6SM SCT120
     FM310100 23003KT P6SM BKN120=

USA.gov is the U.S. government's official web portal to all federal, state and local government web resources and services.